Puerto del Rosario, Spain
Current Conditions -  °F | °C
As of 3:00 PM on Thursday 30 Oct 2014 (Local Time) from GCFV Reporting Station
Scattered Clouds Scattered Clouds  
Wind Chill: 77°   Ceiling: Unl
Heat Index: 79°   Visibility: 6mi
Dew Point: 66°   Wind: 5mph
Humidity: 69%   Direction: 80°E
Pressure: 29.91"   Gusts: NA
Location:  28.5°N, 13.86°W
Report Text: GCFV 301500Z 08004KT 030V130 9999 SCT025 25/19 Q1013
Loading
Personal Weather Stations






























Interactive Weather Map New forecast layout! Learn more

10-Day Weather Forecast

Advertisements
Track Severe Weather on mobile